TimeCDT,TemperatureF,Dew PointF,Humidity,Sea Level PressureIn,VisibilityMPH,Wind Direction,Wind SpeedMPH,Gust SpeedMPH,PrecipitationIn,Events,Conditions,WindDirDegrees,DateUTC
12:15 AM,73.4,68.0,83,29.86,10.0,WNW,8.1,-,N/A,,Clear,300,2013-06-28 05:15:00
12:35 AM,73.4,68.0,83,29.85,10.0,WNW,6.9,-,N/A,,Clear,300,2013-06-28 05:35:00
12:55 AM,73.4,66.2,78,29.84,10.0,WNW,4.6,-,N/A,,Clear,300,2013-06-28 05:55:00
1:35 AM,71.6,66.2,83,29.83,10.0,WNW,5.8,-,N/A,,Clear,300,2013-06-28 06:35:00
1:55 AM,73.4,64.4,73,29.83,10.0,West,4.6,-,N/A,,Clear,260,2013-06-28 06:55:00
2:15 AM,71.6,64.4,78,29.83,10.0,West,5.8,-,N/A,,Clear,260,2013-06-28 07:15:00
2:35 AM,71.6,64.4,78,29.83,10.0,West,6.9,-,N/A,,Clear,270,2013-06-28 07:35:00
2:55 AM,69.8,64.4,83,29.83,10.0,West,5.8,-,N/A,,Clear,260,2013-06-28 07:55:00
3:15 AM,69.8,64.4,83,29.84,10.0,WSW,4.6,-,N/A,,Clear,250,2013-06-28 08:15:00
3:35 AM,69.8,64.4,83,29.83,10.0,WSW,4.6,-,N/A,,Clear,250,2013-06-28 08:35:00
3:55 AM,69.8,64.4,83,29.82,10.0,West,4.6,-,N/A,,Clear,260,2013-06-28 08:55:00
4:15 AM,69.8,64.4,83,29.82,10.0,West,5.8,-,N/A,,Clear,260,2013-06-28 09:15:00
4:35 AM,68.0,64.4,88,29.82,10.0,West,6.9,-,N/A,,Clear,270,2013-06-28 09:35:00
4:55 AM,68.0,64.4,88,29.82,10.0,West,8.1,-,N/A,,Clear,280,2013-06-28 09:55:00
5:15 AM,68.0,64.4,88,29.82,10.0,West,6.9,-,N/A,,Clear,280,2013-06-28 10:15:00
5:35 AM,68.0,64.4,88,29.82,10.0,West,8.1,-,N/A,,Clear,270,2013-06-28 10:35:00
5:55 AM,68.0,64.4,88,29.82,10.0,West,8.1,-,N/A,,Clear,280,2013-06-28 10:55:00
6:15 AM,69.8,64.4,83,29.82,10.0,West,8.1,-,N/A,,Clear,270,2013-06-28 11:15:00
6:35 AM,69.8,64.4,83,29.82,10.0,West,6.9,-,N/A,,Clear,280,2013-06-28 11:35:00
6:55 AM,69.8,64.4,83,29.82,10.0,West,8.1,-,N/A,,Scattered Clouds,280,2013-06-28 11:55:00
7:55 AM,73.4,64.4,73,29.83,10.0,WNW,9.2,-,N/A,,Clear,300,2013-06-28 12:55:00
8:15 AM,75.2,64.4,69,29.83,10.0,NW,10.4,-,N/A,,Clear,310,2013-06-28 13:15:00
8:35 AM,75.2,64.4,69,29.83,10.0,NW,11.5,-,N/A,,Clear,310,2013-06-28 13:35:00
8:55 AM,78.8,62.6,57,29.83,10.0,NW,15.0,-,N/A,,Clear,310,2013-06-28 13:55:00
9:15 AM,78.8,62.6,57,29.83,10.0,NW,12.7,17.3,N/A,,Clear,310,2013-06-28 14:15:00
9:35 AM,78.8,60.8,54,29.83,10.0,NW,13.8,19.6,N/A,,Clear,320,2013-06-28 14:35:00
9:55 AM,80.6,59.0,48,29.82,10.0,NW,16.1,23.0,N/A,,Clear,320,2013-06-28 14:55:00
10:15 AM,80.6,57.2,45,29.82,10.0,WNW,17.3,25.3,N/A,,Clear,300,2013-06-28 15:15:00
10:35 AM,82.4,55.4,39,29.82,10.0,NW,20.7,26.5,N/A,,Clear,320,2013-06-28 15:35:00
10:55 AM,82.4,53.6,37,29.82,10.0,NW,18.4,28.8,N/A,,Clear,320,2013-06-28 15:55:00
11:15 AM,82.4,51.8,35,29.82,10.0,NNW,20.7,29.9,N/A,,Clear,330,2013-06-28 16:15:00
11:35 AM,84.2,51.8,33,29.81,10.0,NNW,17.3,24.2,N/A,,Clear,330,2013-06-28 16:35:00
11:55 AM,84.2,51.8,33,29.80,10.0,NNW,24.2,31.1,N/A,,Clear,340,2013-06-28 16:55:00
12:15 PM,84.2,51.8,33,29.80,10.0,NW,17.3,26.5,N/A,,Clear,310,2013-06-28 17:15:00
12:35 PM,84.2,51.8,33,29.80,10.0,NW,18.4,35.7,N/A,,Clear,310,2013-06-28 17:35:00
12:55 PM,86.0,51.8,31,29.80,10.0,NW,20.7,27.6,N/A,,Scattered Clouds,310,2013-06-28 17:55:00
1:15 PM,86.0,48.2,27,29.80,10.0,NW,20.7,27.6,N/A,,Clear,310,2013-06-28 18:15:00
1:35 PM,84.2,50.0,30,29.79,10.0,WNW,21.9,29.9,N/A,,Scattered Clouds,300,2013-06-28 18:35:00
1:55 PM,86.0,50.0,29,29.78,10.0,NW,23.0,33.4,N/A,,Scattered Clouds,310,2013-06-28 18:55:00
2:15 PM,86.0,50.0,29,29.78,10.0,NW,24.2,35.7,N/A,,Scattered Clouds,310,2013-06-28 19:15:00
2:35 PM,86.0,51.8,31,29.78,10.0,NW,18.4,32.2,N/A,,Scattered Clouds,310,2013-06-28 19:35:00
2:55 PM,86.0,50.0,29,29.76,10.0,NW,24.2,35.7,N/A,,Scattered Clouds,320,2013-06-28 19:55:00
3:15 PM,86.0,50.0,29,29.76,10.0,NW,25.3,32.2,N/A,,Scattered Clouds,310,2013-06-28 20:15:00
3:35 PM,87.8,48.2,25,29.76,10.0,NW,24.2,33.4,N/A,,Scattered Clouds,310,2013-06-28 20:35:00
3:55 PM,87.8,48.2,25,29.76,10.0,NW,21.9,35.7,N/A,,Clear,310,2013-06-28 20:55:00
4:15 PM,87.8,48.2,25,29.75,10.0,NW,21.9,32.2,N/A,,Clear,310,2013-06-28 21:15:00
4:35 PM,87.8,46.4,24,29.74,10.0,NW,27.6,36.8,N/A,,Scattered Clouds,310,2013-06-28 21:35:00
4:55 PM,87.8,46.4,24,29.74,10.0,WNW,24.2,31.1,N/A,,Clear,300,2013-06-28 21:55:00
5:15 PM,87.8,48.2,25,29.74,10.0,NW,19.6,27.6,N/A,,Clear,320,2013-06-28 22:15:00
5:35 PM,87.8,48.2,25,29.73,10.0,NW,23.0,29.9,N/A,,Clear,310,2013-06-28 22:35:00
5:55 PM,86.0,50.0,29,29.73,10.0,NW,20.7,29.9,N/A,,Scattered Clouds,320,2013-06-28 22:55:00
6:15 PM,86.0,51.8,31,29.73,10.0,NW,23.0,29.9,N/A,,Scattered Clouds,310,2013-06-28 23:15:00
6:35 PM,84.2,51.8,33,29.72,10.0,NW,19.6,29.9,N/A,,Scattered Clouds,320,2013-06-28 23:35:00
6:55 PM,84.2,51.8,33,29.72,10.0,NW,17.3,24.2,N/A,,Clear,320,2013-06-28 23:55:00
7:15 PM,82.4,53.6,37,29.73,10.0,NW,16.1,24.2,N/A,,Scattered Clouds,320,2013-06-29 00:15:00
7:35 PM,82.4,55.4,39,29.73,10.0,NW,10.4,-,N/A,,Scattered Clouds,320,2013-06-29 00:35:00
7:55 PM,80.6,55.4,42,29.74,10.0,NW,11.5,-,N/A,,Mostly Cloudy,320,2013-06-29 00:55:00
8:15 PM,80.6,55.4,42,29.73,10.0,NW,12.7,18.4,N/A,,Mostly Cloudy,320,2013-06-29 01:15:00
8:35 PM,78.8,55.4,44,29.74,10.0,NW,10.4,-,N/A,,Overcast,320,2013-06-29 01:35:00
8:55 PM,78.8,55.4,44,29.74,10.0,NW,9.2,-,N/A,,Scattered Clouds,320,2013-06-29 01:55:00
9:15 PM,77.0,55.4,47,29.74,10.0,NW,13.8,-,N/A,,Scattered Clouds,320,2013-06-29 02:15:00
9:35 PM,77.0,55.4,47,29.74,10.0,NW,11.5,17.3,N/A,,Scattered Clouds,320,2013-06-29 02:35:00
9:55 PM,75.2,55.4,50,29.75,10.0,NW,10.4,-,N/A,,Clear,320,2013-06-29 02:55:00
10:15 PM,75.2,55.4,50,29.75,10.0,NW,9.2,-,N/A,,Clear,310,2013-06-29 03:15:00
10:35 PM,73.4,55.4,53,29.75,10.0,NW,10.4,-,N/A,,Clear,320,2013-06-29 03:35:00
10:55 PM,73.4,57.2,57,29.74,10.0,NW,9.2,-,N/A,,Clear,310,2013-06-29 03:55:00
11:15 PM,73.4,57.2,57,29.74,10.0,NW,8.1,-,N/A,,Clear,310,2013-06-29 04:15:00
11:35 PM,71.6,57.2,60,29.74,10.0,WNW,5.8,-,N/A,,Clear,300,2013-06-29 04:35:00
11:55 PM,71.6,57.2,60,29.74,10.0,NW,9.2,-,N/A,,Clear,310,2013-06-29 04:55:00